sensor_id;sensor_type;location;lat;lon;timestamp;P1;durP1;ratioP1;P2;durP2;ratioP2
3597;SDS011;1813;52.016;8.714;2023-02-21T00:02:18;102.47;;;45.70;;
3597;SDS011;1813;52.016;8.714;2023-02-21T00:05:04;94.00;;;39.73;;
3597;SDS011;1813;52.016;8.714;2023-02-21T00:07:50;87.27;;;41.10;;
3597;SDS011;1813;52.016;8.714;2023-02-21T00:10:36;89.20;;;40.07;;
3597;SDS011;1813;52.016;8.714;2023-02-21T00:13:25;95.87;;;41.57;;
3597;SDS011;1813;52.016;8.714;2023-02-21T00:16:13;93.23;;;41.90;;
3597;SDS011;1813;52.016;8.714;2023-02-21T00:19:01;93.53;;;42.10;;
3597;SDS011;1813;52.016;8.714;2023-02-21T00:21:47;88.07;;;41.27;;
3597;SDS011;1813;52.016;8.714;2023-02-21T00:24:34;98.57;;;43.27;;
3597;SDS011;1813;52.016;8.714;2023-02-21T00:27:23;101.37;;;44.43;;
3597;SDS011;1813;52.016;8.714;2023-02-21T00:30:13;104.83;;;44.70;;
3597;SDS011;1813;52.016;8.714;2023-02-21T00:33:01;97.83;;;44.63;;
3597;SDS011;1813;52.016;8.714;2023-02-21T00:35:48;101.23;;;46.57;;
3597;SDS011;1813;52.016;8.714;2023-02-21T00:38:35;111.23;;;48.83;;
3597;SDS011;1813;52.016;8.714;2023-02-21T00:41:22;114.33;;;46.97;;
3597;SDS011;1813;52.016;8.714;2023-02-21T00:44:08;122.27;;;52.10;;
3597;SDS011;1813;52.016;8.714;2023-02-21T00:46:57;106.50;;;43.40;;
3597;SDS011;1813;52.016;8.714;2023-02-21T00:49:43;117.90;;;48.77;;
3597;SDS011;1813;52.016;8.714;2023-02-21T00:52:29;123.03;;;50.77;;
3597;SDS011;1813;52.016;8.714;2023-02-21T00:55:15;127.67;;;51.97;;
3597;SDS011;1813;52.016;8.714;2023-02-21T00:58:01;123.40;;;51.03;;
3597;SDS011;1813;52.016;8.714;2023-02-21T01:00:47;118.93;;;51.07;;
3597;SDS011;1813;52.016;8.714;2023-02-21T01:03:36;140.33;;;55.23;;
3597;SDS011;1813;52.016;8.714;2023-02-21T01:06:23;128.83;;;51.57;;
3597;SDS011;1813;52.016;8.714;2023-02-21T01:09:09;121.57;;;46.57;;
3597;SDS011;1813;52.016;8.714;2023-02-21T01:11:56;120.40;;;49.30;;
3597;SDS011;1813;52.016;8.714;2023-02-21T01:14:42;124.60;;;51.20;;
3597;SDS011;1813;52.016;8.714;2023-02-21T01:17:29;120.47;;;47.27;;
3597;SDS011;1813;52.016;8.714;2023-02-21T01:20:18;119.03;;;48.73;;
3597;SDS011;1813;52.016;8.714;2023-02-21T01:23:04;116.80;;;48.40;;
3597;SDS011;1813;52.016;8.714;2023-02-21T01:25:50;107.80;;;43.23;;
3597;SDS011;1813;52.016;8.714;2023-02-21T01:28:36;126.90;;;51.53;;
3597;SDS011;1813;52.016;8.714;2023-02-21T01:31:22;122.40;;;50.43;;
3597;SDS011;1813;52.016;8.714;2023-02-21T01:34:10;120.67;;;48.93;;
3597;SDS011;1813;52.016;8.714;2023-02-21T01:36:59;125.40;;;50.47;;
3597;SDS011;1813;52.016;8.714;2023-02-21T01:39:45;131.60;;;54.33;;
3597;SDS011;1813;52.016;8.714;2023-02-21T01:42:33;103.97;;;42.07;;
3597;SDS011;1813;52.016;8.714;2023-02-21T01:48:35;137.67;;;52.30;;
3597;SDS011;1813;52.016;8.714;2023-02-21T01:51:24;115.07;;;48.83;;
3597;SDS011;1813;52.016;8.714;2023-02-21T01:54:16;129.47;;;48.43;;
3597;SDS011;1813;52.016;8.714;2023-02-21T01:57:03;129.70;;;52.50;;
3597;SDS011;1813;52.016;8.714;2023-02-21T01:59:52;129.97;;;52.47;;
3597;SDS011;1813;52.016;8.714;2023-02-21T02:02:46;139.07;;;54.73;;
3597;SDS011;1813;52.016;8.714;2023-02-21T02:05:36;130.90;;;51.30;;
3597;SDS011;1813;52.016;8.714;2023-02-21T02:08:26;129.40;;;51.10;;
3597;SDS011;1813;52.016;8.714;2023-02-21T02:11:21;141.20;;;53.43;;
3597;SDS011;1813;52.016;8.714;2023-02-21T02:14:36;126.90;;;52.20;;
3597;SDS011;1813;52.016;8.714;2023-02-21T02:17:30;127.87;;;51.70;;
3597;SDS011;1813;52.016;8.714;2023-02-21T02:23:42;128.27;;;51.27;;
3597;SDS011;1813;52.016;8.714;2023-02-21T02:29:51;130.30;;;51.53;;
3597;SDS011;1813;52.016;8.714;2023-02-21T02:32:51;141.03;;;51.07;;
3597;SDS011;1813;52.016;8.714;2023-02-21T02:35:55;127.67;;;49.93;;
3597;SDS011;1813;52.016;8.714;2023-02-21T02:38:35;134.13;;;53.17;;
3597;SDS011;1813;52.016;8.714;2023-02-21T02:41:18;134.37;;;54.00;;
3597;SDS011;1813;52.016;8.714;2023-02-21T02:44:02;137.80;;;53.80;;
3597;SDS011;1813;52.016;8.714;2023-02-21T02:46:45;140.17;;;53.73;;
3597;SDS011;1813;52.016;8.714;2023-02-21T02:49:23;140.90;;;53.83;;
3597;SDS011;1813;52.016;8.714;2023-02-21T02:54:58;139.10;;;53.47;;
3597;SDS011;1813;52.016;8.714;2023-02-21T02:57:33;143.40;;;55.13;;
3597;SDS011;1813;52.016;8.714;2023-02-21T03:00:12;138.90;;;52.60;;
3597;SDS011;1813;52.016;8.714;2023-02-21T03:02:55;145.87;;;54.10;;
3597;SDS011;1813;52.016;8.714;2023-02-21T03:05:44;143.10;;;55.13;;
3597;SDS011;1813;52.016;8.714;2023-02-21T03:08:35;149.13;;;55.10;;
3597;SDS011;1813;52.016;8.714;2023-02-21T03:11:16;136.10;;;53.50;;
3597;SDS011;1813;52.016;8.714;2023-02-21T03:13:52;145.47;;;55.33;;
3597;SDS011;1813;52.016;8.714;2023-02-21T03:16:32;144.13;;;52.73;;
3597;SDS011;1813;52.016;8.714;2023-02-21T03:19:11;141.67;;;54.67;;
3597;SDS011;1813;52.016;8.714;2023-02-21T03:21:49;140.60;;;55.00;;
3597;SDS011;1813;52.016;8.714;2023-02-21T03:24:38;149.53;;;57.07;;
3597;SDS011;1813;52.016;8.714;2023-02-21T03:27:15;138.60;;;52.47;;
3597;SDS011;1813;52.016;8.714;2023-02-21T03:30:19;148.57;;;55.20;;
3597;SDS011;1813;52.016;8.714;2023-02-21T03:32:55;142.33;;;52.43;;
3597;SDS011;1813;52.016;8.714;2023-02-21T03:35:29;147.37;;;54.10;;
3597;SDS011;1813;52.016;8.714;2023-02-21T03:38:04;140.67;;;55.37;;
3597;SDS011;1813;52.016;8.714;2023-02-21T03:40:40;158.43;;;56.40;;
3597;SDS011;1813;52.016;8.714;2023-02-21T03:43:17;147.10;;;54.97;;
3597;SDS011;1813;52.016;8.714;2023-02-21T03:45:55;137.60;;;52.03;;
3597;SDS011;1813;52.016;8.714;2023-02-21T03:48:31;131.30;;;48.23;;
3597;SDS011;1813;52.016;8.714;2023-02-21T03:51:15;145.03;;;55.53;;
3597;SDS011;1813;52.016;8.714;2023-02-21T03:53:49;152.27;;;54.10;;
3597;SDS011;1813;52.016;8.714;2023-02-21T03:56:34;148.67;;;55.47;;
3597;SDS011;1813;52.016;8.714;2023-02-21T03:59:24;151.37;;;54.80;;
3597;SDS011;1813;52.016;8.714;2023-02-21T04:01:59;156.57;;;55.20;;
3597;SDS011;1813;52.016;8.714;2023-02-21T04:04:35;146.30;;;52.17;;
3597;SDS011;1813;52.016;8.714;2023-02-21T04:07:16;159.93;;;57.10;;
3597;SDS011;1813;52.016;8.714;2023-02-21T04:09:51;158.20;;;53.00;;
3597;SDS011;1813;52.016;8.714;2023-02-21T04:12:37;171.13;;;54.80;;
3597;SDS011;1813;52.016;8.714;2023-02-21T04:15:11;143.87;;;51.07;;
3597;SDS011;1813;52.016;8.714;2023-02-21T04:17:45;158.10;;;55.67;;
3597;SDS011;1813;52.016;8.714;2023-02-21T04:20:19;163.53;;;53.73;;
3597;SDS011;1813;52.016;8.714;2023-02-21T04:22:57;161.77;;;56.13;;
3597;SDS011;1813;52.016;8.714;2023-02-21T04:25:31;165.87;;;57.43;;
3597;SDS011;1813;52.016;8.714;2023-02-21T04:28:12;180.57;;;58.13;;
3597;SDS011;1813;52.016;8.714;2023-02-21T04:30:46;153.87;;;52.10;;
3597;SDS011;1813;52.016;8.714;2023-02-21T04:33:21;172.50;;;56.07;;
3597;SDS011;1813;52.016;8.714;2023-02-21T04:35:54;164.57;;;54.03;;
3597;SDS011;1813;52.016;8.714;2023-02-21T04:38:37;161.73;;;55.60;;
3597;SDS011;1813;52.016;8.714;2023-02-21T04:41:12;169.17;;;56.97;;
3597;SDS011;1813;52.016;8.714;2023-02-21T04:43:51;167.40;;;55.23;;
3597;SDS011;1813;52.016;8.714;2023-02-21T04:46:27;180.47;;;57.90;;
3597;SDS011;1813;52.016;8.714;2023-02-21T04:49:01;170.47;;;56.13;;
3597;SDS011;1813;52.016;8.714;2023-02-21T04:51:35;183.40;;;59.80;;
3597;SDS011;1813;52.016;8.714;2023-02-21T04:54:09;185.27;;;60.20;;
3597;SDS011;1813;52.016;8.714;2023-02-21T04:56:43;171.23;;;56.93;;
3597;SDS011;1813;52.016;8.714;2023-02-21T04:59:20;166.43;;;53.90;;
3597;SDS011;1813;52.016;8.714;2023-02-21T05:01:54;162.87;;;54.20;;
3597;SDS011;1813;52.016;8.714;2023-02-21T05:04:29;172.47;;;57.33;;
3597;SDS011;1813;52.016;8.714;2023-02-21T05:07:03;178.87;;;57.53;;
3597;SDS011;1813;52.016;8.714;2023-02-21T05:09:38;177.97;;;57.30;;
3597;SDS011;1813;52.016;8.714;2023-02-21T05:12:12;184.00;;;58.30;;
3597;SDS011;1813;52.016;8.714;2023-02-21T05:14:49;184.90;;;58.50;;
3597;SDS011;1813;52.016;8.714;2023-02-21T05:17:23;187.40;;;56.17;;
3597;SDS011;1813;52.016;8.714;2023-02-21T05:19:59;191.97;;;58.03;;
3597;SDS011;1813;52.016;8.714;2023-02-21T05:22:33;187.27;;;57.33;;
3597;SDS011;1813;52.016;8.714;2023-02-21T05:25:13;184.63;;;56.97;;
3597;SDS011;1813;52.016;8.714;2023-02-21T05:27:49;195.23;;;60.10;;
3597;SDS011;1813;52.016;8.714;2023-02-21T05:30:27;191.03;;;57.20;;
3597;SDS011;1813;52.016;8.714;2023-02-21T05:33:01;201.23;;;60.70;;
3597;SDS011;1813;52.016;8.714;2023-02-21T05:35:35;193.80;;;59.50;;
3597;SDS011;1813;52.016;8.714;2023-02-21T05:38:09;185.20;;;58.17;;
3597;SDS011;1813;52.016;8.714;2023-02-21T05:40:42;183.07;;;55.90;;
3597;SDS011;1813;52.016;8.714;2023-02-21T05:43:16;190.97;;;56.30;;
3597;SDS011;1813;52.016;8.714;2023-02-21T05:45:53;205.00;;;63.17;;
3597;SDS011;1813;52.016;8.714;2023-02-21T05:48:27;206.10;;;60.00;;
3597;SDS011;1813;52.016;8.714;2023-02-21T05:51:00;193.23;;;60.53;;
3597;SDS011;1813;52.016;8.714;2023-02-21T05:53:34;197.33;;;57.40;;
3597;SDS011;1813;52.016;8.714;2023-02-21T05:56:08;188.60;;;55.70;;
3597;SDS011;1813;52.016;8.714;2023-02-21T05:58:43;201.90;;;61.10;;
3597;SDS011;1813;52.016;8.714;2023-02-21T06:01:19;193.87;;;55.00;;
3597;SDS011;1813;52.016;8.714;2023-02-21T06:03:53;207.40;;;60.33;;
3597;SDS011;1813;52.016;8.714;2023-02-21T06:06:27;191.77;;;55.17;;
3597;SDS011;1813;52.016;8.714;2023-02-21T06:09:00;202.83;;;58.27;;
3597;SDS011;1813;52.016;8.714;2023-02-21T06:11:35;217.27;;;61.10;;
3597;SDS011;1813;52.016;8.714;2023-02-21T06:14:12;224.43;;;59.67;;
3597;SDS011;1813;52.016;8.714;2023-02-21T06:16:51;201.97;;;57.40;;
3597;SDS011;1813;52.016;8.714;2023-02-21T06:19:25;226.67;;;59.43;;
3597;SDS011;1813;52.016;8.714;2023-02-21T06:21:58;222.53;;;59.00;;
3597;SDS011;1813;52.016;8.714;2023-02-21T06:24:32;217.10;;;57.47;;
3597;SDS011;1813;52.016;8.714;2023-02-21T06:27:06;208.93;;;57.50;;
3597;SDS011;1813;52.016;8.714;2023-02-21T06:29:40;226.80;;;58.80;;
3597;SDS011;1813;52.016;8.714;2023-02-21T06:32:16;216.03;;;59.40;;
3597;SDS011;1813;52.016;8.714;2023-02-21T06:34:50;217.50;;;56.73;;
3597;SDS011;1813;52.016;8.714;2023-02-21T06:37:24;205.43;;;55.80;;
3597;SDS011;1813;52.016;8.714;2023-02-21T06:39:58;216.13;;;58.20;;
3597;SDS011;1813;52.016;8.714;2023-02-21T06:42:34;199.80;;;55.13;;
3597;SDS011;1813;52.016;8.714;2023-02-21T06:45:09;211.23;;;56.80;;
3597;SDS011;1813;52.016;8.714;2023-02-21T06:47:45;203.60;;;54.50;;
3597;SDS011;1813;52.016;8.714;2023-02-21T06:50:19;192.13;;;52.97;;
3597;SDS011;1813;52.016;8.714;2023-02-21T06:52:52;201.87;;;54.40;;
3597;SDS011;1813;52.016;8.714;2023-02-21T06:55:26;179.50;;;51.87;;
3597;SDS011;1813;52.016;8.714;2023-02-21T06:58:00;187.63;;;54.83;;
3597;SDS011;1813;52.016;8.714;2023-02-21T07:00:34;174.57;;;50.50;;
3597;SDS011;1813;52.016;8.714;2023-02-21T07:03:10;179.97;;;52.20;;
3597;SDS011;1813;52.016;8.714;2023-02-21T07:05:44;170.30;;;49.40;;
3597;SDS011;1813;52.016;8.714;2023-02-21T07:08:19;175.87;;;50.00;;
3597;SDS011;1813;52.016;8.714;2023-02-21T07:10:55;162.17;;;49.27;;
3597;SDS011;1813;52.016;8.714;2023-02-21T07:13:29;169.40;;;50.23;;
3597;SDS011;1813;52.016;8.714;2023-02-21T07:16:03;179.70;;;51.73;;
3597;SDS011;1813;52.016;8.714;2023-02-21T07:18:43;160.97;;;49.33;;
3597;SDS011;1813;52.016;8.714;2023-02-21T07:21:19;157.87;;;49.37;;
3597;SDS011;1813;52.016;8.714;2023-02-21T07:23:55;180.40;;;51.60;;
3597;SDS011;1813;52.016;8.714;2023-02-21T07:26:28;167.83;;;51.00;;
3597;SDS011;1813;52.016;8.714;2023-02-21T07:29:02;168.13;;;50.90;;
3597;SDS011;1813;52.016;8.714;2023-02-21T07:31:37;166.07;;;49.63;;
3597;SDS011;1813;52.016;8.714;2023-02-21T07:34:14;169.00;;;50.33;;
3597;SDS011;1813;52.016;8.714;2023-02-21T07:36:49;166.37;;;51.60;;
3597;SDS011;1813;52.016;8.714;2023-02-21T07:39:23;167.47;;;51.73;;
3597;SDS011;1813;52.016;8.714;2023-02-21T07:41:56;163.87;;;51.30;;
3597;SDS011;1813;52.016;8.714;2023-02-21T07:44:33;160.93;;;50.40;;
3597;SDS011;1813;52.016;8.714;2023-02-21T07:47:07;152.37;;;48.30;;
3597;SDS011;1813;52.016;8.714;2023-02-21T07:49:43;154.20;;;49.03;;
3597;SDS011;1813;52.016;8.714;2023-02-21T07:52:17;149.50;;;47.90;;
3597;SDS011;1813;52.016;8.714;2023-02-21T07:54:52;163.93;;;48.53;;
3597;SDS011;1813;52.016;8.714;2023-02-21T07:57:26;151.43;;;49.17;;
3597;SDS011;1813;52.016;8.714;2023-02-21T08:00:00;147.67;;;46.67;;
3597;SDS011;1813;52.016;8.714;2023-02-21T08:02:45;146.37;;;46.07;;
3597;SDS011;1813;52.016;8.714;2023-02-21T08:05:23;156.63;;;46.37;;
3597;SDS011;1813;52.016;8.714;2023-02-21T08:07:57;156.80;;;49.13;;
3597;SDS011;1813;52.016;8.714;2023-02-21T08:10:31;138.03;;;46.07;;
3597;SDS011;1813;52.016;8.714;2023-02-21T08:13:05;145.30;;;46.80;;
3597;SDS011;1813;52.016;8.714;2023-02-21T08:15:38;142.00;;;46.20;;
3597;SDS011;1813;52.016;8.714;2023-02-21T08:18:15;145.90;;;45.63;;
3597;SDS011;1813;52.016;8.714;2023-02-21T08:20:56;135.53;;;44.87;;
3597;SDS011;1813;52.016;8.714;2023-02-21T08:23:32;120.33;;;40.90;;
3597;SDS011;1813;52.016;8.714;2023-02-21T08:26:06;126.13;;;42.00;;
3597;SDS011;1813;52.016;8.714;2023-02-21T08:28:40;116.50;;;39.20;;
3597;SDS011;1813;52.016;8.714;2023-02-21T08:31:26;110.07;;;39.07;;
3597;SDS011;1813;52.016;8.714;2023-02-21T08:34:00;111.90;;;39.60;;
3597;SDS011;1813;52.016;8.714;2023-02-21T08:36:37;103.00;;;39.80;;
3597;SDS011;1813;52.016;8.714;2023-02-21T08:39:12;101.47;;;37.17;;
3597;SDS011;1813;52.016;8.714;2023-02-21T08:41:46;100.70;;;38.70;;
3597;SDS011;1813;52.016;8.714;2023-02-21T08:44:21;99.90;;;37.63;;
3597;SDS011;1813;52.016;8.714;2023-02-21T08:46:56;104.87;;;39.80;;
3597;SDS011;1813;52.016;8.714;2023-02-21T08:49:29;98.87;;;37.60;;
3597;SDS011;1813;52.016;8.714;2023-02-21T08:52:06;92.67;;;37.33;;
3597;SDS011;1813;52.016;8.714;2023-02-21T08:54:40;96.47;;;37.30;;
3597;SDS011;1813;52.016;8.714;2023-02-21T08:57:15;96.37;;;37.90;;
3597;SDS011;1813;52.016;8.714;2023-02-21T08:59:49;97.37;;;37.40;;
3597;SDS011;1813;52.016;8.714;2023-02-21T09:02:23;95.37;;;37.20;;
3597;SDS011;1813;52.016;8.714;2023-02-21T09:04:57;93.10;;;37.10;;
3597;SDS011;1813;52.016;8.714;2023-02-21T09:07:34;96.47;;;37.00;;
3597;SDS011;1813;52.016;8.714;2023-02-21T09:10:08;98.47;;;36.83;;
3597;SDS011;1813;52.016;8.714;2023-02-21T09:12:44;88.07;;;37.17;;
3597;SDS011;1813;52.016;8.714;2023-02-21T09:15:19;92.13;;;36.70;;
3597;SDS011;1813;52.016;8.714;2023-02-21T09:17:54;88.97;;;36.23;;
3597;SDS011;1813;52.016;8.714;2023-02-21T09:20:28;86.60;;;35.73;;
3597;SDS011;1813;52.016;8.714;2023-02-21T09:23:04;91.57;;;36.13;;
3597;SDS011;1813;52.016;8.714;2023-02-21T09:25:38;90.73;;;35.90;;
3597;SDS011;1813;52.016;8.714;2023-02-21T09:28:12;92.17;;;36.83;;
3597;SDS011;1813;52.016;8.714;2023-02-21T09:30:46;89.33;;;36.80;;
3597;SDS011;1813;52.016;8.714;2023-02-21T09:33:21;87.80;;;36.13;;
3597;SDS011;1813;52.016;8.714;2023-02-21T09:35:55;87.30;;;34.67;;
3597;SDS011;1813;52.016;8.714;2023-02-21T09:38:31;78.83;;;34.00;;
3597;SDS011;1813;52.016;8.714;2023-02-21T09:41:05;74.13;;;31.07;;
3597;SDS011;1813;52.016;8.714;2023-02-21T09:43:42;59.50;;;29.37;;
3597;SDS011;1813;52.016;8.714;2023-02-21T09:46:18;69.80;;;31.03;;
3597;SDS011;1813;52.016;8.714;2023-02-21T09:48:59;61.87;;;28.33;;
3597;SDS011;1813;52.016;8.714;2023-02-21T09:51:35;63.60;;;29.77;;
3597;SDS011;1813;52.016;8.714;2023-02-21T09:54:15;60.50;;;28.03;;
3597;SDS011;1813;52.016;8.714;2023-02-21T09:56:55;59.10;;;26.87;;
3597;SDS011;1813;52.016;8.714;2023-02-21T09:59:32;56.40;;;26.57;;
3597;SDS011;1813;52.016;8.714;2023-02-21T10:02:15;60.67;;;27.83;;
3597;SDS011;1813;52.016;8.714;2023-02-21T10:05:06;58.90;;;28.03;;
3597;SDS011;1813;52.016;8.714;2023-02-21T10:07:55;63.63;;;29.33;;
3597;SDS011;1813;52.016;8.714;2023-02-21T10:10:36;59.07;;;28.17;;
3597;SDS011;1813;52.016;8.714;2023-02-21T10:13:21;73.10;;;31.33;;
3597;SDS011;1813;52.016;8.714;2023-02-21T10:16:04;72.80;;;31.83;;
3597;SDS011;1813;52.016;8.714;2023-02-21T10:18:44;68.00;;;31.03;;
3597;SDS011;1813;52.016;8.714;2023-02-21T10:21:27;70.57;;;32.10;;
3597;SDS011;1813;52.016;8.714;2023-02-21T10:24:09;71.17;;;34.10;;
3597;SDS011;1813;52.016;8.714;2023-02-21T10:26:51;74.90;;;34.40;;
3597;SDS011;1813;52.016;8.714;2023-02-21T10:29:36;75.30;;;33.37;;
3597;SDS011;1813;52.016;8.714;2023-02-21T10:32:12;68.97;;;31.17;;
3597;SDS011;1813;52.016;8.714;2023-02-21T10:34:47;72.30;;;33.27;;
3597;SDS011;1813;52.016;8.714;2023-02-21T10:37:24;72.20;;;33.00;;
3597;SDS011;1813;52.016;8.714;2023-02-21T10:40:16;76.37;;;34.30;;
3597;SDS011;1813;52.016;8.714;2023-02-21T10:43:09;74.17;;;33.30;;
3597;SDS011;1813;52.016;8.714;2023-02-21T10:45:49;79.63;;;34.47;;
3597;SDS011;1813;52.016;8.714;2023-02-21T10:48:29;78.67;;;34.80;;
3597;SDS011;1813;52.016;8.714;2023-02-21T10:51:08;83.63;;;36.43;;
3597;SDS011;1813;52.016;8.714;2023-02-21T10:53:44;86.50;;;35.60;;
3597;SDS011;1813;52.016;8.714;2023-02-21T10:56:23;91.17;;;38.57;;
3597;SDS011;1813;52.016;8.714;2023-02-21T10:59:02;88.10;;;37.77;;
3597;SDS011;1813;52.016;8.714;2023-02-21T11:01:40;90.07;;;36.60;;
3597;SDS011;1813;52.016;8.714;2023-02-21T11:04:23;88.67;;;38.00;;
3597;SDS011;1813;52.016;8.714;2023-02-21T11:07:01;89.60;;;37.33;;
3597;SDS011;1813;52.016;8.714;2023-02-21T11:09:38;91.37;;;39.23;;
3597;SDS011;1813;52.016;8.714;2023-02-21T11:12:21;88.47;;;39.07;;
3597;SDS011;1813;52.016;8.714;2023-02-21T11:15:14;91.30;;;38.17;;
3597;SDS011;1813;52.016;8.714;2023-02-21T11:18:01;106.17;;;41.57;;
3597;SDS011;1813;52.016;8.714;2023-02-21T11:20:37;91.70;;;39.57;;
3597;SDS011;1813;52.016;8.714;2023-02-21T11:23:24;95.53;;;39.70;;
3597;SDS011;1813;52.016;8.714;2023-02-21T11:26:04;97.40;;;40.67;;
3597;SDS011;1813;52.016;8.714;2023-02-21T11:28:40;96.57;;;38.97;;
3597;SDS011;1813;52.016;8.714;2023-02-21T11:31:20;93.57;;;38.83;;
3597;SDS011;1813;52.016;8.714;2023-02-21T11:34:00;100.33;;;40.57;;
3597;SDS011;1813;52.016;8.714;2023-02-21T11:36:37;99.53;;;41.00;;
3597;SDS011;1813;52.016;8.714;2023-02-21T11:39:14;98.83;;;40.60;;
3597;SDS011;1813;52.016;8.714;2023-02-21T11:41:51;104.53;;;43.17;;
3597;SDS011;1813;52.016;8.714;2023-02-21T11:44:28;106.90;;;42.67;;
3597;SDS011;1813;52.016;8.714;2023-02-21T11:47:16;111.40;;;42.80;;
3597;SDS011;1813;52.016;8.714;2023-02-21T11:49:59;103.03;;;40.73;;
3597;SDS011;1813;52.016;8.714;2023-02-21T11:52:39;106.53;;;42.73;;
3597;SDS011;1813;52.016;8.714;2023-02-21T11:55:25;111.67;;;42.83;;
3597;SDS011;1813;52.016;8.714;2023-02-21T11:58:05;110.87;;;42.70;;
3597;SDS011;1813;52.016;8.714;2023-02-21T12:00:53;112.70;;;42.17;;
3597;SDS011;1813;52.016;8.714;2023-02-21T12:03:44;117.53;;;43.10;;
3597;SDS011;1813;52.016;8.714;2023-02-21T12:06:34;112.53;;;42.97;;
3597;SDS011;1813;52.016;8.714;2023-02-21T12:09:17;118.33;;;44.80;;
3597;SDS011;1813;52.016;8.714;2023-02-21T12:15:15;125.43;;;46.20;;
3597;SDS011;1813;52.016;8.714;2023-02-21T12:18:05;133.30;;;46.40;;
3597;SDS011;1813;52.016;8.714;2023-02-21T12:21:03;130.40;;;45.93;;
3597;SDS011;1813;52.016;8.714;2023-02-21T12:23:48;131.87;;;47.47;;
3597;SDS011;1813;52.016;8.714;2023-02-21T12:26:47;134.70;;;47.70;;
3597;SDS011;1813;52.016;8.714;2023-02-21T12:29:37;132.13;;;46.77;;
3597;SDS011;1813;52.016;8.714;2023-02-21T12:32:32;123.33;;;44.43;;
3597;SDS011;1813;52.016;8.714;2023-02-21T12:38:38;124.03;;;42.67;;
3597;SDS011;1813;52.016;8.714;2023-02-21T12:41:27;108.97;;;41.40;;
3597;SDS011;1813;52.016;8.714;2023-02-21T12:44:14;111.73;;;40.53;;
3597;SDS011;1813;52.016;8.714;2023-02-21T12:46:53;118.13;;;43.03;;
3597;SDS011;1813;52.016;8.714;2023-02-21T12:49:34;112.93;;;43.17;;
3597;SDS011;1813;52.016;8.714;2023-02-21T12:52:15;116.90;;;43.73;;
3597;SDS011;1813;52.016;8.714;2023-02-21T12:54:57;116.30;;;42.93;;
3597;SDS011;1813;52.016;8.714;2023-02-21T12:57:40;111.20;;;40.47;;
3597;SDS011;1813;52.016;8.714;2023-02-21T13:00:23;103.07;;;39.07;;
3597;SDS011;1813;52.016;8.714;2023-02-21T13:03:02;100.30;;;37.60;;
3597;SDS011;1813;52.016;8.714;2023-02-21T13:05:48;101.43;;;38.57;;
3597;SDS011;1813;52.016;8.714;2023-02-21T13:08:27;104.53;;;38.90;;
3597;SDS011;1813;52.016;8.714;2023-02-21T13:11:08;108.93;;;39.17;;
3597;SDS011;1813;52.016;8.714;2023-02-21T13:13:47;103.23;;;40.10;;
3597;SDS011;1813;52.016;8.714;2023-02-21T13:16:21;102.53;;;39.60;;
3597;SDS011;1813;52.016;8.714;2023-02-21T13:18:58;115.90;;;42.20;;
3597;SDS011;1813;52.016;8.714;2023-02-21T13:21:38;111.40;;;40.67;;
3597;SDS011;1813;52.016;8.714;2023-02-21T13:24:32;100.57;;;40.57;;
3597;SDS011;1813;52.016;8.714;2023-02-21T13:27:29;105.80;;;40.17;;
3597;SDS011;1813;52.016;8.714;2023-02-21T13:30:15;90.07;;;36.67;;
3597;SDS011;1813;52.016;8.714;2023-02-21T13:32:54;95.10;;;37.93;;
3597;SDS011;1813;52.016;8.714;2023-02-21T13:35:32;88.67;;;35.77;;
3597;SDS011;1813;52.016;8.714;2023-02-21T13:38:09;93.47;;;36.10;;
3597;SDS011;1813;52.016;8.714;2023-02-21T13:40:45;80.00;;;33.80;;
3597;SDS011;1813;52.016;8.714;2023-02-21T13:43:26;86.20;;;35.33;;
3597;SDS011;1813;52.016;8.714;2023-02-21T13:52:23;90.30;;;36.17;;
3597;SDS011;1813;52.016;8.714;2023-02-21T13:55:18;89.10;;;36.67;;
3597;SDS011;1813;52.016;8.714;2023-02-21T14:07:15;90.33;;;35.37;;
3597;SDS011;1813;52.016;8.714;2023-02-21T14:09:53;81.47;;;33.50;;
3597;SDS011;1813;52.016;8.714;2023-02-21T14:12:29;89.57;;;35.30;;
3597;SDS011;1813;52.016;8.714;2023-02-21T14:15:04;80.13;;;32.70;;
3597;SDS011;1813;52.016;8.714;2023-02-21T14:17:40;77.17;;;31.50;;
3597;SDS011;1813;52.016;8.714;2023-02-21T14:20:15;81.50;;;33.67;;
3597;SDS011;1813;52.016;8.714;2023-02-21T14:22:54;73.80;;;30.70;;
3597;SDS011;1813;52.016;8.714;2023-02-21T14:25:31;84.87;;;33.83;;
3597;SDS011;1813;52.016;8.714;2023-02-21T14:31:15;75.40;;;33.50;;
3597;SDS011;1813;52.016;8.714;2023-02-21T14:34:20;88.37;;;34.50;;
3597;SDS011;1813;52.016;8.714;2023-02-21T14:36:59;89.07;;;36.17;;
3597;SDS011;1813;52.016;8.714;2023-02-21T14:39:40;91.07;;;35.53;;
3597;SDS011;1813;52.016;8.714;2023-02-21T14:42:26;90.83;;;36.70;;
3597;SDS011;1813;52.016;8.714;2023-02-21T14:48:29;93.30;;;37.27;;
3597;SDS011;1813;52.016;8.714;2023-02-21T14:54:48;94.40;;;36.40;;
3597;SDS011;1813;52.016;8.714;2023-02-21T15:00:55;93.17;;;35.73;;
3597;SDS011;1813;52.016;8.714;2023-02-21T15:03:35;94.77;;;35.90;;
3597;SDS011;1813;52.016;8.714;2023-02-21T15:06:17;93.70;;;35.50;;
3597;SDS011;1813;52.016;8.714;2023-02-21T15:08:52;93.47;;;35.73;;
3597;SDS011;1813;52.016;8.714;2023-02-21T15:11:30;89.53;;;33.47;;
3597;SDS011;1813;52.016;8.714;2023-02-21T15:14:12;82.60;;;34.20;;
3597;SDS011;1813;52.016;8.714;2023-02-21T15:16:54;80.97;;;33.30;;
3597;SDS011;1813;52.016;8.714;2023-02-21T15:19:30;85.27;;;33.87;;
3597;SDS011;1813;52.016;8.714;2023-02-21T15:22:15;81.00;;;32.83;;
3597;SDS011;1813;52.016;8.714;2023-02-21T15:28:00;76.23;;;31.50;;
3597;SDS011;1813;52.016;8.714;2023-02-21T15:30:37;70.27;;;30.80;;
3597;SDS011;1813;52.016;8.714;2023-02-21T15:33:14;70.83;;;31.03;;
3597;SDS011;1813;52.016;8.714;2023-02-21T15:35:51;72.03;;;31.10;;
3597;SDS011;1813;52.016;8.714;2023-02-21T15:38:28;72.40;;;29.83;;
3597;SDS011;1813;52.016;8.714;2023-02-21T15:41:05;66.13;;;28.70;;
3597;SDS011;1813;52.016;8.714;2023-02-21T15:43:48;62.03;;;28.83;;
3597;SDS011;1813;52.016;8.714;2023-02-21T15:46:26;65.87;;;28.93;;
3597;SDS011;1813;52.016;8.714;2023-02-21T15:49:05;67.90;;;30.47;;
3597;SDS011;1813;52.016;8.714;2023-02-21T15:51:41;65.93;;;31.03;;
3597;SDS011;1813;52.016;8.714;2023-02-21T15:54:26;70.20;;;30.77;;
3597;SDS011;1813;52.016;8.714;2023-02-21T15:57:03;67.10;;;30.47;;
3597;SDS011;1813;52.016;8.714;2023-02-21T16:00:12;76.93;;;31.90;;
3597;SDS011;1813;52.016;8.714;2023-02-21T16:02:50;71.47;;;32.40;;
3597;SDS011;1813;52.016;8.714;2023-02-21T16:05:25;74.07;;;31.30;;
3597;SDS011;1813;52.016;8.714;2023-02-21T16:08:01;74.17;;;30.50;;
3597;SDS011;1813;52.016;8.714;2023-02-21T16:10:37;71.97;;;31.70;;
3597;SDS011;1813;52.016;8.714;2023-02-21T16:13:11;67.97;;;31.10;;
3597;SDS011;1813;52.016;8.714;2023-02-21T16:15:49;81.17;;;32.03;;
3597;SDS011;1813;52.016;8.714;2023-02-21T16:18:26;76.30;;;32.77;;
3597;SDS011;1813;52.016;8.714;2023-02-21T16:21:01;68.90;;;30.57;;
3597;SDS011;1813;52.016;8.714;2023-02-21T16:23:37;72.50;;;29.90;;
3597;SDS011;1813;52.016;8.714;2023-02-21T16:26:20;67.83;;;29.53;;
3597;SDS011;1813;52.016;8.714;2023-02-21T16:28:57;62.13;;;28.63;;
3597;SDS011;1813;52.016;8.714;2023-02-21T16:31:35;66.43;;;29.50;;
3597;SDS011;1813;52.016;8.714;2023-02-21T16:34:11;66.03;;;28.37;;
3597;SDS011;1813;52.016;8.714;2023-02-21T16:36:46;64.23;;;28.20;;
3597;SDS011;1813;52.016;8.714;2023-02-21T16:39:24;60.67;;;28.37;;
3597;SDS011;1813;52.016;8.714;2023-02-21T16:41:59;61.03;;;28.30;;
3597;SDS011;1813;52.016;8.714;2023-02-21T16:44:33;65.47;;;28.40;;
3597;SDS011;1813;52.016;8.714;2023-02-21T16:47:12;59.50;;;27.17;;
3597;SDS011;1813;52.016;8.714;2023-02-21T16:49:48;68.80;;;28.53;;